sensor_id;sensor_type;location;lat;lon;timestamp;temperature;humidity
3866;DHT22;1948;53.250;10.412;2023-03-01T00:01:46;-0.10;99.90
3866;DHT22;1948;53.250;10.412;2023-03-01T00:04:13;-0.10;99.90
3866;DHT22;1948;53.250;10.412;2023-03-01T00:06:42;-0.20;99.90
3866;DHT22;1948;53.250;10.412;2023-03-01T00:09:13;-0.20;99.90
3866;DHT22;1948;53.250;10.412;2023-03-01T00:11:41;-0.20;99.90
3866;DHT22;1948;53.250;10.412;2023-03-01T00:14:11;-0.20;99.90
3866;DHT22;1948;53.250;10.412;2023-03-01T00:16:42;-0.30;99.90
3866;DHT22;1948;53.250;10.412;2023-03-01T00:19:13;-0.30;99.90
3866;DHT22;1948;53.250;10.412;2023-03-01T00:21:44;-0.30;99.90
3866;DHT22;1948;53.250;10.412;2023-03-01T00:24:12;-0.40;99.90
3866;DHT22;1948;53.250;10.412;2023-03-01T00:26:41;-0.50;99.90
3866;DHT22;1948;53.250;10.412;2023-03-01T00:29:11;-0.50;99.90
3866;DHT22;1948;53.250;10.412;2023-03-01T00:31:40;-0.60;99.90
3866;DHT22;1948;53.250;10.412;2023-03-01T00:34:10;-0.60;99.90
3866;DHT22;1948;53.250;10.412;2023-03-01T00:36:39;-0.50;99.90
3866;DHT22;1948;53.250;10.412;2023-03-01T00:39:13;-0.60;99.90
3866;DHT22;1948;53.250;10.412;2023-03-01T00:41:41;-0.70;99.90
3866;DHT22;1948;53.250;10.412;2023-03-01T00:44:09;-0.70;99.90
3866;DHT22;1948;53.250;10.412;2023-03-01T00:46:37;-0.80;99.90
3866;DHT22;1948;53.250;10.412;2023-03-01T00:49:06;-0.80;99.90
3866;DHT22;1948;53.250;10.412;2023-03-01T00:51:33;-0.80;99.90
3866;DHT22;1948;53.250;10.412;2023-03-01T00:54:02;-0.90;99.90
3866;DHT22;1948;53.250;10.412;2023-03-01T00:56:31;-0.90;99.90
3866;DHT22;1948;53.250;10.412;2023-03-01T00:58:59;-0.90;99.90
3866;DHT22;1948;53.250;10.412;2023-03-01T01:01:28;-0.80;99.90
3866;DHT22;1948;53.250;10.412;2023-03-01T01:03:59;-0.90;99.90
3866;DHT22;1948;53.250;10.412;2023-03-01T01:06:36;-1.00;99.90
3866;DHT22;1948;53.250;10.412;2023-03-01T01:09:14;-1.00;99.90
3866;DHT22;1948;53.250;10.412;2023-03-01T01:11:47;-1.10;99.90
3866;DHT22;1948;53.250;10.412;2023-03-01T01:14:20;-1.10;99.90
3866;DHT22;1948;53.250;10.412;2023-03-01T01:16:47;-1.20;99.90
3866;DHT22;1948;53.250;10.412;2023-03-01T01:19:16;-1.20;99.90
3866;DHT22;1948;53.250;10.412;2023-03-01T01:21:43;-1.20;99.90
3866;DHT22;1948;53.250;10.412;2023-03-01T01:24:11;-1.10;99.90
3866;DHT22;1948;53.250;10.412;2023-03-01T01:26:38;-1.20;99.90
3866;DHT22;1948;53.250;10.412;2023-03-01T01:29:06;-1.30;99.90
3866;DHT22;1948;53.250;10.412;2023-03-01T01:31:36;-1.40;99.90
3866;DHT22;1948;53.250;10.412;2023-03-01T01:34:06;-1.40;99.90
3866;DHT22;1948;53.250;10.412;2023-03-01T01:36:36;-1.50;99.90
3866;DHT22;1948;53.250;10.412;2023-03-01T01:39:03;-1.60;99.90
3866;DHT22;1948;53.250;10.412;2023-03-01T01:41:33;-1.60;99.90
3866;DHT22;1948;53.250;10.412;2023-03-01T01:44:10;-1.60;99.90
3866;DHT22;1948;53.250;10.412;2023-03-01T01:46:41;-1.50;99.90
3866;DHT22;1948;53.250;10.412;2023-03-01T01:52:07;-1.40;99.90
3866;DHT22;1948;53.250;10.412;2023-03-01T01:57:15;-1.40;99.90
3866;DHT22;1948;53.250;10.412;2023-03-01T01:59:57;-1.40;99.90
3866;DHT22;1948;53.250;10.412;2023-03-01T02:02:26;-1.40;99.90
3866;DHT22;1948;53.250;10.412;2023-03-01T02:05:03;-1.50;99.90
3866;DHT22;1948;53.250;10.412;2023-03-01T02:07:38;-1.50;99.90
3866;DHT22;1948;53.250;10.412;2023-03-01T02:10:08;-1.50;99.90
3866;DHT22;1948;53.250;10.412;2023-03-01T02:12:36;-1.60;99.90
3866;DHT22;1948;53.250;10.412;2023-03-01T02:15:06;-1.70;99.90
3866;DHT22;1948;53.250;10.412;2023-03-01T02:17:33;-1.70;99.90
3866;DHT22;1948;53.250;10.412;2023-03-01T02:22:54;-1.80;99.90
3866;DHT22;1948;53.250;10.412;2023-03-01T02:25:47;-1.80;99.90
3866;DHT22;1948;53.250;10.412;2023-03-01T02:28:32;-1.80;99.90
3866;DHT22;1948;53.250;10.412;2023-03-01T02:30:59;-1.80;99.90
3866;DHT22;1948;53.250;10.412;2023-03-01T02:33:46;-1.80;99.90
3866;DHT22;1948;53.250;10.412;2023-03-01T02:36:18;-1.80;99.90
3866;DHT22;1948;53.250;10.412;2023-03-01T02:38:48;-1.70;99.90
3866;DHT22;1948;53.250;10.412;2023-03-01T02:41:20;-1.70;99.90
3866;DHT22;1948;53.250;10.412;2023-03-01T02:43:47;-1.70;99.90
3866;DHT22;1948;53.250;10.412;2023-03-01T02:46:23;-1.70;99.90
3866;DHT22;1948;53.250;10.412;2023-03-01T02:48:56;-1.70;99.90
3866;DHT22;1948;53.250;10.412;2023-03-01T02:56:31;-1.60;99.90
3866;DHT22;1948;53.250;10.412;2023-03-01T02:58:58;-1.60;99.90
3866;DHT22;1948;53.250;10.412;2023-03-01T03:01:27;-1.50;99.90
3866;DHT22;1948;53.250;10.412;2023-03-01T03:04:05;-1.50;99.90
3866;DHT22;1948;53.250;10.412;2023-03-01T03:06:33;-1.60;99.90
3866;DHT22;1948;53.250;10.412;2023-03-01T03:09:00;-1.60;99.90
3866;DHT22;1948;53.250;10.412;2023-03-01T03:11:27;-1.50;99.90
3866;DHT22;1948;53.250;10.412;2023-03-01T03:13:55;-1.50;99.90
3866;DHT22;1948;53.250;10.412;2023-03-01T03:16:25;-1.60;99.90
3866;DHT22;1948;53.250;10.412;2023-03-01T03:18:52;-1.60;99.90
3866;DHT22;1948;53.250;10.412;2023-03-01T03:21:19;-1.70;99.90
3866;DHT22;1948;53.250;10.412;2023-03-01T03:23:48;-1.70;99.90
3866;DHT22;1948;53.250;10.412;2023-03-01T03:26:15;-1.70;99.90
3866;DHT22;1948;53.250;10.412;2023-03-01T03:28:45;-1.70;99.90
3866;DHT22;1948;53.250;10.412;2023-03-01T03:31:13;-1.70;99.90
3866;DHT22;1948;53.250;10.412;2023-03-01T03:33:40;-1.70;99.90
3866;DHT22;1948;53.250;10.412;2023-03-01T03:36:09;-1.70;99.90
3866;DHT22;1948;53.250;10.412;2023-03-01T03:38:44;-1.70;99.90
3866;DHT22;1948;53.250;10.412;2023-03-01T03:41:12;-1.70;99.90
3866;DHT22;1948;53.250;10.412;2023-03-01T03:43:43;-1.80;99.90
3866;DHT22;1948;53.250;10.412;2023-03-01T03:46:11;-1.80;99.90
3866;DHT22;1948;53.250;10.412;2023-03-01T03:48:45;-1.70;99.90
3866;DHT22;1948;53.250;10.412;2023-03-01T03:51:17;-1.60;99.90
3866;DHT22;1948;53.250;10.412;2023-03-01T03:53:47;-1.60;99.90
3866;DHT22;1948;53.250;10.412;2023-03-01T03:56:14;-1.60;99.90
3866;DHT22;1948;53.250;10.412;2023-03-01T03:58:43;-1.60;99.90
3866;DHT22;1948;53.250;10.412;2023-03-01T04:01:12;-1.60;99.90
3866;DHT22;1948;53.250;10.412;2023-03-01T04:03:42;-1.50;99.90
3866;DHT22;1948;53.250;10.412;2023-03-01T04:06:16;-1.50;99.90
3866;DHT22;1948;53.250;10.412;2023-03-01T04:08:45;-1.50;99.90
3866;DHT22;1948;53.250;10.412;2023-03-01T04:11:12;-1.50;99.90
3866;DHT22;1948;53.250;10.412;2023-03-01T04:13:56;-1.40;99.90
3866;DHT22;1948;53.250;10.412;2023-03-01T04:16:27;-1.40;99.90
3866;DHT22;1948;53.250;10.412;2023-03-01T04:18:59;-1.40;99.90
3866;DHT22;1948;53.250;10.412;2023-03-01T04:21:27;-1.40;99.90
3866;DHT22;1948;53.250;10.412;2023-03-01T04:23:54;-1.40;99.90
3866;DHT22;1948;53.250;10.412;2023-03-01T04:26:21;-1.40;99.90
3866;DHT22;1948;53.250;10.412;2023-03-01T04:28:47;-1.40;99.90
3866;DHT22;1948;53.250;10.412;2023-03-01T04:31:18;-1.40;99.90
3866;DHT22;1948;53.250;10.412;2023-03-01T04:33:50;-1.50;99.90
3866;DHT22;1948;53.250;10.412;2023-03-01T04:36:23;-1.60;99.90
3866;DHT22;1948;53.250;10.412;2023-03-01T04:38:52;-1.70;99.90
3866;DHT22;1948;53.250;10.412;2023-03-01T04:41:23;-1.80;99.90
3866;DHT22;1948;53.250;10.412;2023-03-01T04:43:51;-1.90;99.90
3866;DHT22;1948;53.250;10.412;2023-03-01T04:46:20;-1.90;99.90
3866;DHT22;1948;53.250;10.412;2023-03-01T04:48:48;-1.90;99.90
3866;DHT22;1948;53.250;10.412;2023-03-01T04:51:15;-2.00;99.90
3866;DHT22;1948;53.250;10.412;2023-03-01T04:53:43;-2.00;99.90
3866;DHT22;1948;53.250;10.412;2023-03-01T04:56:13;-2.20;99.90
3866;DHT22;1948;53.250;10.412;2023-03-01T04:58:40;-2.20;99.90
3866;DHT22;1948;53.250;10.412;2023-03-01T05:01:14;-2.20;99.90
3866;DHT22;1948;53.250;10.412;2023-03-01T05:03:47;-2.30;99.90
3866;DHT22;1948;53.250;10.412;2023-03-01T05:06:21;-2.40;99.90
3866;DHT22;1948;53.250;10.412;2023-03-01T05:08:48;-2.50;99.90
3866;DHT22;1948;53.250;10.412;2023-03-01T05:11:15;-2.50;99.90
3866;DHT22;1948;53.250;10.412;2023-03-01T05:13:44;-2.40;99.90
3866;DHT22;1948;53.250;10.412;2023-03-01T05:16:11;-2.30;99.90
3866;DHT22;1948;53.250;10.412;2023-03-01T05:18:39;-2.30;99.90
3866;DHT22;1948;53.250;10.412;2023-03-01T05:21:12;-2.20;99.90
3866;DHT22;1948;53.250;10.412;2023-03-01T05:23:45;-2.20;99.90
3866;DHT22;1948;53.250;10.412;2023-03-01T05:26:16;-2.10;99.90
3866;DHT22;1948;53.250;10.412;2023-03-01T05:29:05;-2.10;99.90
3866;DHT22;1948;53.250;10.412;2023-03-01T05:31:32;-2.10;99.90
3866;DHT22;1948;53.250;10.412;2023-03-01T05:34:01;-2.00;99.90
3866;DHT22;1948;53.250;10.412;2023-03-01T05:36:33;-1.90;99.90
3866;DHT22;1948;53.250;10.412;2023-03-01T05:39:01;-1.80;99.90
3866;DHT22;1948;53.250;10.412;2023-03-01T05:41:27;-1.80;99.90
3866;DHT22;1948;53.250;10.412;2023-03-01T05:43:54;-1.80;99.90
3866;DHT22;1948;53.250;10.412;2023-03-01T05:46:24;-1.70;99.90
3866;DHT22;1948;53.250;10.412;2023-03-01T05:48:51;-1.80;99.90
3866;DHT22;1948;53.250;10.412;2023-03-01T05:51:20;-1.80;99.90
3866;DHT22;1948;53.250;10.412;2023-03-01T05:53:50;-1.90;99.90
3866;DHT22;1948;53.250;10.412;2023-03-01T05:56:22;-1.90;99.90
3866;DHT22;1948;53.250;10.412;2023-03-01T05:58:54;-2.00;99.90
3866;DHT22;1948;53.250;10.412;2023-03-01T06:01:21;-1.90;99.90
3866;DHT22;1948;53.250;10.412;2023-03-01T06:03:53;-1.80;99.90
3866;DHT22;1948;53.250;10.412;2023-03-01T06:06:22;-1.80;99.90
3866;DHT22;1948;53.250;10.412;2023-03-01T06:08:54;-1.80;99.90
3866;DHT22;1948;53.250;10.412;2023-03-01T06:11:21;-1.90;99.90
3866;DHT22;1948;53.250;10.412;2023-03-01T06:13:48;-1.80;99.90
3866;DHT22;1948;53.250;10.412;2023-03-01T06:16:15;-1.80;99.90
3866;DHT22;1948;53.250;10.412;2023-03-01T06:18:42;-1.70;99.90
3866;DHT22;1948;53.250;10.412;2023-03-01T06:21:11;-1.70;99.90
3866;DHT22;1948;53.250;10.412;2023-03-01T06:23:38;-1.60;99.90
3866;DHT22;1948;53.250;10.412;2023-03-01T06:26:07;-1.60;99.90
3866;DHT22;1948;53.250;10.412;2023-03-01T06:28:37;-1.50;99.90
3866;DHT22;1948;53.250;10.412;2023-03-01T06:31:06;-1.50;99.90
3866;DHT22;1948;53.250;10.412;2023-03-01T06:33:37;-1.60;99.90
3866;DHT22;1948;53.250;10.412;2023-03-01T06:36:07;-1.60;99.90
3866;DHT22;1948;53.250;10.412;2023-03-01T06:38:37;-1.80;99.90
3866;DHT22;1948;53.250;10.412;2023-03-01T06:41:04;-1.80;99.90
3866;DHT22;1948;53.250;10.412;2023-03-01T06:43:34;-1.80;99.90
3866;DHT22;1948;53.250;10.412;2023-03-01T06:46:04;-1.70;99.90
3866;DHT22;1948;53.250;10.412;2023-03-01T06:48:36;-1.50;99.90
3866;DHT22;1948;53.250;10.412;2023-03-01T06:51:03;-1.40;99.90
3866;DHT22;1948;53.250;10.412;2023-03-01T06:53:32;-1.20;99.90
3866;DHT22;1948;53.250;10.412;2023-03-01T06:56:01;-1.00;99.90
3866;DHT22;1948;53.250;10.412;2023-03-01T06:58:29;-0.90;99.90
3866;DHT22;1948;53.250;10.412;2023-03-01T07:00:56;-0.80;99.90
3866;DHT22;1948;53.250;10.412;2023-03-01T07:03:25;-0.70;99.90
3866;DHT22;1948;53.250;10.412;2023-03-01T07:05:52;-0.70;99.90
3866;DHT22;1948;53.250;10.412;2023-03-01T07:08:19;-0.60;99.90
3866;DHT22;1948;53.250;10.412;2023-03-01T07:10:57;-0.50;99.90
3866;DHT22;1948;53.250;10.412;2023-03-01T07:13:25;-0.60;99.90
3866;DHT22;1948;53.250;10.412;2023-03-01T07:15:52;-0.50;99.90
3866;DHT22;1948;53.250;10.412;2023-03-01T07:18:19;-0.50;99.90
3866;DHT22;1948;53.250;10.412;2023-03-01T07:20:46;-0.50;99.90
3866;DHT22;1948;53.250;10.412;2023-03-01T07:23:13;-0.50;99.90
3866;DHT22;1948;53.250;10.412;2023-03-01T07:25:40;-0.40;99.90
3866;DHT22;1948;53.250;10.412;2023-03-01T07:28:07;-0.20;99.90
3866;DHT22;1948;53.250;10.412;2023-03-01T07:30:34;0.00;99.90
3866;DHT22;1948;53.250;10.412;2023-03-01T07:33:01;0.20;99.90
3866;DHT22;1948;53.250;10.412;2023-03-01T07:35:28;0.50;99.90
3866;DHT22;1948;53.250;10.412;2023-03-01T07:37:59;0.60;99.90
3866;DHT22;1948;53.250;10.412;2023-03-01T07:40:26;0.70;99.90
3866;DHT22;1948;53.250;10.412;2023-03-01T07:42:57;0.90;99.90
3866;DHT22;1948;53.250;10.412;2023-03-01T07:45:25;1.10;99.90
3866;DHT22;1948;53.250;10.412;2023-03-01T07:47:52;1.30;99.90
3866;DHT22;1948;53.250;10.412;2023-03-01T07:50:23;1.40;99.90
3866;DHT22;1948;53.250;10.412;2023-03-01T07:52:50;1.50;99.90
3866;DHT22;1948;53.250;10.412;2023-03-01T07:55:17;1.60;99.90
3866;DHT22;1948;53.250;10.412;2023-03-01T07:57:46;1.80;99.90
3866;DHT22;1948;53.250;10.412;2023-03-01T08:00:13;1.80;99.90
3866;DHT22;1948;53.250;10.412;2023-03-01T08:02:43;1.90;99.90
3866;DHT22;1948;53.250;10.412;2023-03-01T08:05:13;2.00;99.90
3866;DHT22;1948;53.250;10.412;2023-03-01T08:07:39;2.40;99.90
3866;DHT22;1948;53.250;10.412;2023-03-01T08:10:09;2.80;99.90
3866;DHT22;1948;53.250;10.412;2023-03-01T08:12:39;3.30;99.90
3866;DHT22;1948;53.250;10.412;2023-03-01T08:15:06;3.90;99.90
3866;DHT22;1948;53.250;10.412;2023-03-01T08:17:34;4.60;99.90
3866;DHT22;1948;53.250;10.412;2023-03-01T08:20:01;4.80;99.90
3866;DHT22;1948;53.250;10.412;2023-03-01T08:22:29;5.10;99.90
3866;DHT22;1948;53.250;10.412;2023-03-01T08:24:56;5.40;99.90
3866;DHT22;1948;53.250;10.412;2023-03-01T08:27:25;6.00;99.90
3866;DHT22;1948;53.250;10.412;2023-03-01T08:29:52;6.20;99.90
3866;DHT22;1948;53.250;10.412;2023-03-01T08:32:19;6.20;99.90
3866;DHT22;1948;53.250;10.412;2023-03-01T08:34:47;6.20;99.90
3866;DHT22;1948;53.250;10.412;2023-03-01T08:37:14;6.00;99.90
3866;DHT22;1948;53.250;10.412;2023-03-01T08:39:41;5.90;99.90
3866;DHT22;1948;53.250;10.412;2023-03-01T08:42:12;5.70;99.90
3866;DHT22;1948;53.250;10.412;2023-03-01T08:44:44;5.60;99.90
3866;DHT22;1948;53.250;10.412;2023-03-01T08:47:12;5.60;99.90
3866;DHT22;1948;53.250;10.412;2023-03-01T08:49:39;5.60;99.90
3866;DHT22;1948;53.250;10.412;2023-03-01T08:52:08;5.70;99.90
3866;DHT22;1948;53.250;10.412;2023-03-01T08:54:35;5.90;99.90
3866;DHT22;1948;53.250;10.412;2023-03-01T08:57:02;6.10;99.90
3866;DHT22;1948;53.250;10.412;2023-03-01T08:59:32;6.50;99.90
3866;DHT22;1948;53.250;10.412;2023-03-01T09:02:05;7.50;99.90
3866;DHT22;1948;53.250;10.412;2023-03-01T09:04:35;8.30;99.90
3866;DHT22;1948;53.250;10.412;2023-03-01T09:07:01;9.60;99.90
3866;DHT22;1948;53.250;10.412;2023-03-01T09:09:28;10.60;99.90
3866;DHT22;1948;53.250;10.412;2023-03-01T09:11:58;11.80;99.90
3866;DHT22;1948;53.250;10.412;2023-03-01T09:14:25;13.00;99.90
3866;DHT22;1948;53.250;10.412;2023-03-01T09:16:52;14.40;99.90
3866;DHT22;1948;53.250;10.412;2023-03-01T09:19:19;15.60;99.90
3866;DHT22;1948;53.250;10.412;2023-03-01T09:21:46;15.50;97.40
3866;DHT22;1948;53.250;10.412;2023-03-01T09:24:23;14.90;96.80
3866;DHT22;1948;53.250;10.412;2023-03-01T09:26:54;14.60;96.30
3866;DHT22;1948;53.250;10.412;2023-03-01T09:29:24;15.10;96.20
3866;DHT22;1948;53.250;10.412;2023-03-01T09:31:52;16.20;95.60
3866;DHT22;1948;53.250;10.412;2023-03-01T09:34:24;18.00;93.10
3866;DHT22;1948;53.250;10.412;2023-03-01T09:36:51;19.30;90.50
3866;DHT22;1948;53.250;10.412;2023-03-01T09:39:18;20.00;84.60
3866;DHT22;1948;53.250;10.412;2023-03-01T09:42:04;20.90;80.80
3866;DHT22;1948;53.250;10.412;2023-03-01T09:44:46;22.30;75.60
3866;DHT22;1948;53.250;10.412;2023-03-01T09:47:22;23.10;70.60
3866;DHT22;1948;53.250;10.412;2023-03-01T09:50:20;23.70;67.20
3866;DHT22;1948;53.250;10.412;2023-03-01T09:52:59;23.70;65.70
3866;DHT22;1948;53.250;10.412;2023-03-01T09:55:39;24.70;63.80
3866;DHT22;1948;53.250;10.412;2023-03-01T09:58:33;24.30;60.60
3866;DHT22;1948;53.250;10.412;2023-03-01T10:01:29;22.80;60.50
3866;DHT22;1948;53.250;10.412;2023-03-01T10:10:37;20.50;63.40
3866;DHT22;1948;53.250;10.412;2023-03-01T10:16:23;18.70;66.00
3866;DHT22;1948;53.250;10.412;2023-03-01T10:19:06;18.20;67.70
3866;DHT22;1948;53.250;10.412;2023-03-01T10:21:43;18.40;69.40
3866;DHT22;1948;53.250;10.412;2023-03-01T10:24:15;19.60;69.50
3866;DHT22;1948;53.250;10.412;2023-03-01T10:26:57;20.70;68.40
3866;DHT22;1948;53.250;10.412;2023-03-01T10:29:36;21.20;67.00
3866;DHT22;1948;53.250;10.412;2023-03-01T10:32:10;21.20;66.30
3866;DHT22;1948;53.250;10.412;2023-03-01T10:34:40;22.90;66.70
3866;DHT22;1948;53.250;10.412;2023-03-01T10:37:12;23.60;64.30
3866;DHT22;1948;53.250;10.412;2023-03-01T10:40:01;24.30;63.20
3866;DHT22;1948;53.250;10.412;2023-03-01T10:42:37;25.30;61.30
3866;DHT22;1948;53.250;10.412;2023-03-01T10:48:20;26.50;58.30
3866;DHT22;1948;53.250;10.412;2023-03-01T10:53:28;26.40;57.50
3866;DHT22;1948;53.250;10.412;2023-03-01T10:56:06;25.60;57.50
3866;DHT22;1948;53.250;10.412;2023-03-01T10:58:35;25.00;58.30
3866;DHT22;1948;53.250;10.412;2023-03-01T11:03:43;23.30;58.70
3866;DHT22;1948;53.250;10.412;2023-03-01T11:08:48;22.10;60.20
3866;DHT22;1948;53.250;10.412;2023-03-01T11:11:36;23.10;60.60
3866;DHT22;1948;53.250;10.412;2023-03-01T11:14:07;24.30;59.50
3866;DHT22;1948;53.250;10.412;2023-03-01T11:17:27;25.40;58.80
3866;DHT22;1948;53.250;10.412;2023-03-01T11:22:57;26.20;57.10
3866;DHT22;1948;53.250;10.412;2023-03-01T11:25:37;27.10;56.90
3866;DHT22;1948;53.250;10.412;2023-03-01T11:28:10;28.10;56.00
3866;DHT22;1948;53.250;10.412;2023-03-01T11:30:49;28.50;55.40
3866;DHT22;1948;53.250;10.412;2023-03-01T11:34:12;29.00;55.10
3866;DHT22;1948;53.250;10.412;2023-03-01T11:36:56;29.40;53.40
3866;DHT22;1948;53.250;10.412;2023-03-01T11:45:21;30.40;51.80
3866;DHT22;1948;53.250;10.412;2023-03-01T11:48:42;31.10;51.60
3866;DHT22;1948;53.250;10.412;2023-03-01T11:50:49;31.60;50.70
3866;DHT22;1948;53.250;10.412;2023-03-01T11:56:16;31.50;49.20
3866;DHT22;1948;53.250;10.412;2023-03-01T12:06:40;30.60;48.70
3866;DHT22;1948;53.250;10.412;2023-03-01T12:15:18;31.90;48.20
3866;DHT22;1948;53.250;10.412;2023-03-01T12:18:17;31.90;48.40
3866;DHT22;1948;53.250;10.412;2023-03-01T12:27:09;32.10;48.30
3866;DHT22;1948;53.250;10.412;2023-03-01T12:35:33;32.10;47.70
3866;DHT22;1948;53.250;10.412;2023-03-01T12:38:50;31.80;47.90
3866;DHT22;1948;53.250;10.412;2023-03-01T12:44:53;31.10;47.90
3866;DHT22;1948;53.250;10.412;2023-03-01T12:53:36;29.20;47.90
3866;DHT22;1948;53.250;10.412;2023-03-01T12:56:13;26.00;49.30
3866;DHT22;1948;53.250;10.412;2023-03-01T13:10:31;28.60;50.90
3866;DHT22;1948;53.250;10.412;2023-03-01T13:13:08;29.00;50.20
3866;DHT22;1948;53.250;10.412;2023-03-01T13:15:37;28.90;50.20
3866;DHT22;1948;53.250;10.412;2023-03-01T13:26:09;28.90;50.20
3866;DHT22;1948;53.250;10.412;2023-03-01T13:28:57;29.40;50.20
3866;DHT22;1948;53.250;10.412;2023-03-01T13:34:00;29.30;50.00
3866;DHT22;1948;53.250;10.412;2023-03-01T13:41:49;28.80;50.00
3866;DHT22;1948;53.250;10.412;2023-03-01T13:49:47;25.50;51.50
3866;DHT22;1948;53.250;10.412;2023-03-01T13:53:03;25.30;52.80
3866;DHT22;1948;53.250;10.412;2023-03-01T13:58:00;25.80;52.80
3866;DHT22;1948;53.250;10.412;2023-03-01T14:03:23;26.20;52.60
3866;DHT22;1948;53.250;10.412;2023-03-01T14:06:12;26.70;52.20
3866;DHT22;1948;53.250;10.412;2023-03-01T14:08:49;26.90;52.20
3866;DHT22;1948;53.250;10.412;2023-03-01T14:19:34;26.40;52.60
3866;DHT22;1948;53.250;10.412;2023-03-01T14:24:57;25.80;52.50
3866;DHT22;1948;53.250;10.412;2023-03-01T14:27:36;25.90;52.60
3866;DHT22;1948;53.250;10.412;2023-03-01T14:30:17;26.00;52.70
3866;DHT22;1948;53.250;10.412;2023-03-01T14:32:58;25.80;52.90
3866;DHT22;1948;53.250;10.412;2023-03-01T14:35:30;25.70;52.70
3866;DHT22;1948;53.250;10.412;2023-03-01T14:37:58;25.50;53.00
3866;DHT22;1948;53.250;10.412;2023-03-01T14:40:36;25.10;53.10
3866;DHT22;1948;53.250;10.412;2023-03-01T14:43:11;25.10;53.20
3866;DHT22;1948;53.250;10.412;2023-03-01T14:45:47;24.50;53.30
3866;DHT22;1948;53.250;10.412;2023-03-01T14:48:15;24.30;53.70
3866;DHT22;1948;53.250;10.412;2023-03-01T14:50:45;24.50;53.80
3866;DHT22;1948;53.250;10.412;2023-03-01T14:53:26;24.50;53.90
3866;DHT22;1948;53.250;10.412;2023-03-01T14:55:58;24.20;53.60
3866;DHT22;1948;53.250;10.412;2023-03-01T14:58:28;24.30;54.00
3866;DHT22;1948;53.250;10.412;2023-03-01T15:01:01;24.10;54.20
3866;DHT22;1948;53.250;10.412;2023-03-01T15:06:05;23.70;54.50
3866;DHT22;1948;53.250;10.412;2023-03-01T15:08:34;23.50;54.40
3866;DHT22;1948;53.250;10.412;2023-03-01T15:11:21;23.20;55.00
3866;DHT22;1948;53.250;10.412;2023-03-01T15:13:51;22.90;55.30
3866;DHT22;1948;53.250;10.412;2023-03-01T15:16:19;23.00;55.60
3866;DHT22;1948;53.250;10.412;2023-03-01T15:18:56;22.70;55.50
3866;DHT22;1948;53.250;10.412;2023-03-01T15:21:31;22.40;55.90
3866;DHT22;1948;53.250;10.412;2023-03-01T15:29:19;22.00;56.60
3866;DHT22;1948;53.250;10.412;2023-03-01T15:34:24;21.70;56.90
3866;DHT22;1948;53.250;10.412;2023-03-01T15:36:55;21.30;56.90
3866;DHT22;1948;53.250;10.412;2023-03-01T15:42:06;20.60;58.10
3866;DHT22;1948;53.250;10.412;2023-03-01T15:44:37;20.30;58.60
3866;DHT22;1948;53.250;10.412;2023-03-01T15:47:29;20.20;58.70
3866;DHT22;1948;53.250;10.412;2023-03-01T15:49:58;19.80;58.90
3866;DHT22;1948;53.250;10.412;2023-03-01T15:52:40;18.80;59.60
3866;DHT22;1948;53.250;10.412;2023-03-01T15:57:56;16.50;64.40
3866;DHT22;1948;53.250;10.412;2023-03-01T16:00:27;15.80;68.30
3866;DHT22;1948;53.250;10.412;2023-03-01T16:02:58;15.00;73.30
3866;DHT22;1948;53.250;10.412;2023-03-01T16:05:33;14.50;78.10
3866;DHT22;1948;53.250;10.412;2023-03-01T16:08:06;14.10;83.40
3866;DHT22;1948;53.250;10.412;2023-03-01T16:10:36;13.80;88.80
3866;DHT22;1948;53.250;10.412;2023-03-01T16:13:03;13.40;91.70
3866;DHT22;1948;53.250;10.412;2023-03-01T16:15:32;13.10;94.50
3866;DHT22;1948;53.250;10.412;2023-03-01T16:18:02;12.80;97.20
3866;DHT22;1948;53.250;10.412;2023-03-01T16:20:30;12.60;99.50
3866;DHT22;1948;53.250;10.412;2023-03-01T16:23:01;12.40;99.90
3866;DHT22;1948;53.250;10.412;2023-03-01T16:25:33;12.30;99.90
3866;DHT22;1948;53.250;10.412;2023-03-01T16:28:03;12.20;99.90
3866;DHT22;1948;53.250;10.412;2023-03-01T16:30:36;12.00;99.90
3866;DHT22;1948;53.250;10.412;2023-03-01T16:33:07;11.90;99.90
3866;DHT22;1948;53.250;10.412;2023-03-01T16:35:52;11.70;99.90
3866;DHT22;1948;53.250;10.412;2023-03-01T16:38:19;11.40;99.90
3866;DHT22;1948;53.250;10.412;2023-03-01T16:40:50;11.40;99.90
3866;DHT22;1948;53.250;10.412;2023-03-01T16:43:18;11.30;99.90
3866;DHT22;1948;53.250;10.412;2023-03-01T16:45:45;11.10;99.90
3866;DHT22;1948;53.250;10.412;2023-03-01T16:48:13;10.90;99.90
3866;DHT22;1948;53.250;10.412;2023-03-01T16:50:40;10.70;99.90
3866;DHT22;1948;53.250;10.412;2023-03-01T16:53:09;10.70;99.90
3866;DHT22;1948;53.250;10.412;2023-03-01T16:55:39;10.70;99.90
3866;DHT22;1948;53.250;10.412;2023-03-01T16:58:12;10.60;99.90
3866;DHT22;1948;53.250;10.412;2023-03-01T17:00:39;10.50;99.90
3866;DHT22;1948;53.250;10.412;2023-03-01T17:03:06;10.40;99.90
3866;DHT22;1948;53.250;10.412;2023-03-01T17:05:33;10.30;99.90
3866;DHT22;1948;53.250;10.412;2023-03-01T17:08:03;10.30;99.90
3866;DHT22;1948;53.250;10.412;2023-03-01T17:10:35;10.20;99.90
3866;DHT22;1948;53.250;10.412;2023-03-01T17:13:02;10.00;99.90
3866;DHT22;1948;53.250;10.412;2023-03-01T17:15:32;10.00;99.90
3866;DHT22;1948;53.250;10.412;2023-03-01T17:17:59;9.90;99.90
3866;DHT22;1948;53.250;10.412;2023-03-01T17:20:27;9.80;99.90
3866;DHT22;1948;53.250;10.412;2023-03-01T17:22:54;9.70;99.90
3866;DHT22;1948;53.250;10.412;2023-03-01T17:25:21;9.60;99.90
3866;DHT22;1948;53.250;10.412;2023-03-01T17:27:48;9.50;99.90
3866;DHT22;1948;53.250;10.412;2023-03-01T17:30:16;9.40;99.90
3866;DHT22;1948;53.250;10.412;2023-03-01T17:32:46;9.30;99.90
3866;DHT22;1948;53.250;10.412;2023-03-01T17:35:13;9.30;99.90
3866;DHT22;1948;53.250;10.412;2023-03-01T17:37:40;9.20;99.90
3866;DHT22;1948;53.250;10.412;2023-03-01T17:40:15;9.10;99.90
3866;DHT22;1948;53.250;10.412;2023-03-01T17:42:42;9.00;99.90
3866;DHT22;1948;53.250;10.412;2023-03-01T17:45:10;8.90;99.90
3866;DHT22;1948;53.250;10.412;2023-03-01T17:47:39;8.90;99.90
3866;DHT22;1948;53.250;10.412;2023-03-01T17:50:07;8.80;99.90
3866;DHT22;1948;53.250;10.412;2023-03-01T17:52:37;8.70;99.90
3866;DHT22;1948;53.250;10.412;2023-03-01T17:55:05;8.50;99.90
3866;DHT22;1948;53.250;10.412;2023-03-01T17:57:38;8.40;99.90
3866;DHT22;1948;53.250;10.412;2023-03-01T18:00:12;8.40;99.90
3866;DHT22;1948;53.250;10.412;2023-03-01T18:02:43;8.40;99.90
3866;DHT22;1948;53.250;10.412;2023-03-01T18:05:10;8.30;99.90
3866;DHT22;1948;53.250;10.412;2023-03-01T18:07:40;8.20;99.90
3866;DHT22;1948;53.250;10.412;2023-03-01T18:10:07;8.10;99.90
3866;DHT22;1948;53.250;10.412;2023-03-01T18:12:35;8.10;99.90
3866;DHT22;1948;53.250;10.412;2023-03-01T18:15:05;8.00;99.90
3866;DHT22;1948;53.250;10.412;2023-03-01T18:17:33;8.00;99.90
3866;DHT22;1948;53.250;10.412;2023-03-01T18:20:05;7.90;99.90
3866;DHT22;1948;53.250;10.412;2023-03-01T18:22:32;7.80;99.90
3866;DHT22;1948;53.250;10.412;2023-03-01T18:25:04;7.70;99.90
3866;DHT22;1948;53.250;10.412;2023-03-01T18:27:32;7.60;99.90
3866;DHT22;1948;53.250;10.412;2023-03-01T18:30:07;7.60;99.90
3866;DHT22;1948;53.250;10.412;2023-03-01T18:32:40;7.50;99.90
3866;DHT22;1948;53.250;10.412;2023-03-01T18:35:07;7.40;99.90
3866;DHT22;1948;53.250;10.412;2023-03-01T18:37:40;7.40;99.90
3866;DHT22;1948;53.250;10.412;2023-03-01T18:40:09;7.40;99.90
3866;DHT22;1948;53.250;10.412;2023-03-01T18:42:39;7.30;99.90
3866;DHT22;1948;53.250;10.412;2023-03-01T18:45:07;7.20;99.90